sensor_id;sensor_type;location;lat;lon;timestamp;pressure;altitude;pressure_sealevel;temperature;humidity
4598;BME280;62772;48.646;8.906;2023-03-14T00:04:05;94715.63;;;7.99;100.00
4598;BME280;62772;48.646;8.906;2023-03-14T00:09:06;94707.19;;;8.09;100.00
4598;BME280;62772;48.646;8.906;2023-03-14T00:14:06;94697.22;;;8.06;100.00
4598;BME280;62772;48.646;8.906;2023-03-14T00:19:07;94690.03;;;7.94;100.00
4598;BME280;62772;48.646;8.906;2023-03-14T00:24:08;94688.47;;;8.06;100.00
4598;BME280;62772;48.646;8.906;2023-03-14T00:29:09;94692.91;;;8.02;100.00
4598;BME280;62772;48.646;8.906;2023-03-14T00:34:09;94695.91;;;7.88;100.00
4598;BME280;62772;48.646;8.906;2023-03-14T00:39:10;94692.47;;;7.99;100.00
4598;BME280;62772;48.646;8.906;2023-03-14T00:44:10;94691.38;;;8.13;100.00
4598;BME280;62772;48.646;8.906;2023-03-14T00:49:11;94700.69;;;8.07;100.00
4598;BME280;62772;48.646;8.906;2023-03-14T00:54:11;94713.19;;;8.06;100.00
4598;BME280;62772;48.646;8.906;2023-03-14T00:59:12;94724.13;;;8.05;100.00
4598;BME280;62772;48.646;8.906;2023-03-14T01:04:12;94717.63;;;8.14;100.00
4598;BME280;62772;48.646;8.906;2023-03-14T01:09:13;94700.84;;;7.65;100.00
4598;BME280;62772;48.646;8.906;2023-03-14T01:14:14;94697.97;;;7.70;100.00
4598;BME280;62772;48.646;8.906;2023-03-14T01:19:14;94674.53;;;7.96;100.00
4598;BME280;62772;48.646;8.906;2023-03-14T01:24:15;94671.09;;;7.84;100.00
4598;BME280;62772;48.646;8.906;2023-03-14T01:29:16;94662.13;;;7.88;100.00
4598;BME280;62772;48.646;8.906;2023-03-14T01:34:16;94633.09;;;7.71;100.00
4598;BME280;62772;48.646;8.906;2023-03-14T01:39:17;94621.69;;;7.82;100.00
4598;BME280;62772;48.646;8.906;2023-03-14T01:44:18;94598.56;;;7.95;100.00
4598;BME280;62772;48.646;8.906;2023-03-14T01:49:34;94599.13;;;7.76;100.00
4598;BME280;62772;48.646;8.906;2023-03-14T01:54:43;94610.50;;;7.52;100.00
4598;BME280;62772;48.646;8.906;2023-03-14T01:59:58;94614.94;;;7.73;100.00
4598;BME280;62772;48.646;8.906;2023-03-14T02:05:00;94610.72;;;7.84;100.00
4598;BME280;62772;48.646;8.906;2023-03-14T02:10:08;94611.84;;;7.83;100.00
4598;BME280;62772;48.646;8.906;2023-03-14T02:15:10;94605.75;;;7.82;100.00
4598;BME280;62772;48.646;8.906;2023-03-14T02:20:56;94603.09;;;7.58;100.00
4598;BME280;62772;48.646;8.906;2023-03-14T02:26:06;94588.69;;;7.71;100.00
4598;BME280;62772;48.646;8.906;2023-03-14T02:31:10;94577.41;;;7.74;100.00
4598;BME280;62772;48.646;8.906;2023-03-14T02:36:14;94579.41;;;7.77;100.00
4598;BME280;62772;48.646;8.906;2023-03-14T02:41:15;94555.16;;;7.67;100.00
4598;BME280;62772;48.646;8.906;2023-03-14T02:46:22;94548.22;;;7.50;100.00
4598;BME280;62772;48.646;8.906;2023-03-14T02:51:24;94559.03;;;7.69;100.00
4598;BME280;62772;48.646;8.906;2023-03-14T02:56:26;94534.47;;;7.60;100.00
4598;BME280;62772;48.646;8.906;2023-03-14T03:01:26;94542.44;;;7.48;100.00
4598;BME280;62772;48.646;8.906;2023-03-14T03:06:27;94532.72;;;7.52;100.00
4598;BME280;62772;48.646;8.906;2023-03-14T03:11:27;94504.63;;;7.38;100.00
4598;BME280;62772;48.646;8.906;2023-03-14T03:16:28;94505.50;;;7.42;100.00
4598;BME280;62772;48.646;8.906;2023-03-14T03:21:29;94510.38;;;7.28;100.00
4598;BME280;62772;48.646;8.906;2023-03-14T03:26:29;94506.38;;;7.22;100.00
4598;BME280;62772;48.646;8.906;2023-03-14T03:31:30;94481.50;;;7.14;100.00
4598;BME280;62772;48.646;8.906;2023-03-14T03:36:30;94480.97;;;7.21;100.00
4598;BME280;62772;48.646;8.906;2023-03-14T03:41:33;94473.88;;;7.00;100.00
4598;BME280;62772;48.646;8.906;2023-03-14T03:46:34;94467.56;;;7.05;100.00
4598;BME280;62772;48.646;8.906;2023-03-14T03:51:35;94464.47;;;7.15;100.00
4598;BME280;62772;48.646;8.906;2023-03-14T03:56:36;94464.69;;;7.10;100.00
4598;BME280;62772;48.646;8.906;2023-03-14T04:01:36;94464.47;;;7.03;100.00
4598;BME280;62772;48.646;8.906;2023-03-14T04:06:37;94465.59;;;7.02;100.00
4598;BME280;62772;48.646;8.906;2023-03-14T04:11:38;94451.09;;;6.99;100.00
4598;BME280;62772;48.646;8.906;2023-03-14T04:16:58;94457.94;;;7.00;100.00
4598;BME280;62772;48.646;8.906;2023-03-14T04:21:59;94446.44;;;6.96;100.00
4598;BME280;62772;48.646;8.906;2023-03-14T04:27:05;94447.31;;;6.88;100.00
4598;BME280;62772;48.646;8.906;2023-03-14T04:32:07;94430.84;;;6.95;100.00
4598;BME280;62772;48.646;8.906;2023-03-14T04:37:09;94418.25;;;7.04;100.00
4598;BME280;62772;48.646;8.906;2023-03-14T04:42:15;94423.69;;;6.83;100.00
4598;BME280;62772;48.646;8.906;2023-03-14T04:47:16;94410.50;;;6.99;100.00
4598;BME280;62772;48.646;8.906;2023-03-14T04:52:19;94407.84;;;6.99;100.00
4598;BME280;62772;48.646;8.906;2023-03-14T04:57:21;94399.56;;;7.00;100.00
4598;BME280;62772;48.646;8.906;2023-03-14T05:02:23;94384.97;;;6.94;100.00
4598;BME280;62772;48.646;8.906;2023-03-14T05:07:42;94371.47;;;6.99;100.00
4598;BME280;62772;48.646;8.906;2023-03-14T05:12:53;94366.97;;;6.75;100.00
4598;BME280;62772;48.646;8.906;2023-03-14T05:18:18;94368.63;;;6.80;100.00
4598;BME280;62772;48.646;8.906;2023-03-14T05:23:37;94371.69;;;6.94;100.00
4598;BME280;62772;48.646;8.906;2023-03-14T05:29:06;94355.56;;;6.87;100.00
4598;BME280;62772;48.646;8.906;2023-03-14T05:34:19;94352.91;;;6.87;100.00
4598;BME280;62772;48.646;8.906;2023-03-14T05:39:30;94327.81;;;6.72;100.00
4598;BME280;62772;48.646;8.906;2023-03-14T05:44:49;94336.69;;;6.76;100.00
4598;BME280;62772;48.646;8.906;2023-03-14T05:50:08;94324.28;;;6.80;100.00
4598;BME280;62772;48.646;8.906;2023-03-14T05:55:25;94321.19;;;6.78;100.00
4598;BME280;62772;48.646;8.906;2023-03-14T06:00:37;94337.09;;;6.90;100.00
4598;BME280;62772;48.646;8.906;2023-03-14T06:05:53;94340.19;;;6.80;100.00
4598;BME280;62772;48.646;8.906;2023-03-14T06:10:57;94353.47;;;6.80;100.00
4598;BME280;62772;48.646;8.906;2023-03-14T06:16:02;94344.84;;;6.83;100.00
4598;BME280;62772;48.646;8.906;2023-03-14T06:21:03;94341.41;;;6.83;100.00
4598;BME280;62772;48.646;8.906;2023-03-14T06:26:04;94339.28;;;6.88;100.00
4598;BME280;62772;48.646;8.906;2023-03-14T06:31:05;94341.28;;;6.92;100.00
4598;BME280;62772;48.646;8.906;2023-03-14T06:36:13;94330.88;;;6.99;100.00
4598;BME280;62772;48.646;8.906;2023-03-14T06:41:17;94322.69;;;7.04;100.00
4598;BME280;62772;48.646;8.906;2023-03-14T06:46:20;94319.38;;;7.07;100.00
4598;BME280;62772;48.646;8.906;2023-03-14T06:51:20;94315.91;;;7.19;100.00
4598;BME280;62772;48.646;8.906;2023-03-14T06:56:22;94323.53;;;7.20;100.00
4598;BME280;62772;48.646;8.906;2023-03-14T07:01:25;94335.47;;;7.14;100.00
4598;BME280;62772;48.646;8.906;2023-03-14T07:06:27;94338.59;;;7.16;100.00
4598;BME280;62772;48.646;8.906;2023-03-14T07:11:29;94339.44;;;7.20;100.00
4598;BME280;62772;48.646;8.906;2023-03-14T07:16:30;94331.56;;;7.36;100.00
4598;BME280;62772;48.646;8.906;2023-03-14T07:21:33;94345.22;;;7.51;100.00
4598;BME280;62772;48.646;8.906;2023-03-14T07:26:37;94341.75;;;7.62;100.00
4598;BME280;62772;48.646;8.906;2023-03-14T07:31:37;94345.38;;;7.70;100.00
4598;BME280;62772;48.646;8.906;2023-03-14T07:36:39;94364.50;;;7.76;100.00
4598;BME280;62772;48.646;8.906;2023-03-14T07:41:39;94369.69;;;7.85;100.00
4598;BME280;62772;48.646;8.906;2023-03-14T07:47:15;94378.19;;;8.06;100.00
4598;BME280;62772;48.646;8.906;2023-03-14T07:52:15;94384.56;;;8.17;100.00
4598;BME280;62772;48.646;8.906;2023-03-14T07:57:16;94400.72;;;8.41;100.00
4598;BME280;62772;48.646;8.906;2023-03-14T08:02:17;94395.84;;;8.59;100.00
4598;BME280;62772;48.646;8.906;2023-03-14T08:07:20;94392.75;;;8.73;100.00
4598;BME280;62772;48.646;8.906;2023-03-14T08:12:20;94376.28;;;8.83;100.00
4598;BME280;62772;48.646;8.906;2023-03-14T08:17:21;94393.50;;;8.89;100.00
4598;BME280;62772;48.646;8.906;2023-03-14T08:22:21;94377.06;;;8.83;100.00
4598;BME280;62772;48.646;8.906;2023-03-14T08:27:22;94387.53;;;8.76;100.00
4598;BME280;62772;48.646;8.906;2023-03-14T08:32:22;94392.69;;;8.69;100.00
4598;BME280;62772;48.646;8.906;2023-03-14T08:37:23;94406.00;;;8.85;100.00
4598;BME280;62772;48.646;8.906;2023-03-14T08:42:25;94413.91;;;8.81;100.00
4598;BME280;62772;48.646;8.906;2023-03-14T08:47:25;94415.78;;;8.65;100.00
4598;BME280;62772;48.646;8.906;2023-03-14T08:52:26;94417.81;;;8.56;100.00
4598;BME280;62772;48.646;8.906;2023-03-14T08:57:26;94420.75;;;8.22;100.00
4598;BME280;62772;48.646;8.906;2023-03-14T09:02:27;94426.88;;;8.23;100.00
4598;BME280;62772;48.646;8.906;2023-03-14T09:07:28;94424.22;;;8.39;100.00
4598;BME280;62772;48.646;8.906;2023-03-14T09:12:29;94425.91;;;8.43;100.00
4598;BME280;62772;48.646;8.906;2023-03-14T09:17:29;94431.13;;;8.56;100.00
4598;BME280;62772;48.646;8.906;2023-03-14T09:22:30;94434.56;;;8.56;100.00
4598;BME280;62772;48.646;8.906;2023-03-14T09:27:30;94441.53;;;8.61;100.00
4598;BME280;62772;48.646;8.906;2023-03-14T09:32:31;94444.03;;;8.69;100.00
4598;BME280;62772;48.646;8.906;2023-03-14T09:37:34;94447.28;;;8.79;100.00
4598;BME280;62772;48.646;8.906;2023-03-14T09:42:36;94446.69;;;8.85;100.00
4598;BME280;62772;48.646;8.906;2023-03-14T09:47:39;94452.00;;;8.85;100.00
4598;BME280;62772;48.646;8.906;2023-03-14T09:52:45;94448.22;;;9.02;100.00
4598;BME280;62772;48.646;8.906;2023-03-14T09:57:48;94450.16;;;9.37;100.00
4598;BME280;62772;48.646;8.906;2023-03-14T10:02:55;94457.78;;;9.39;100.00
4598;BME280;62772;48.646;8.906;2023-03-14T10:07:57;94456.72;;;9.59;100.00
4598;BME280;62772;48.646;8.906;2023-03-14T10:18:13;94455.63;;;9.44;100.00
4598;BME280;62772;48.646;8.906;2023-03-14T10:28:29;94460.38;;;9.71;100.00
4598;BME280;62772;48.646;8.906;2023-03-14T10:33:32;94458.25;;;9.60;100.00
4598;BME280;62772;48.646;8.906;2023-03-14T10:38:36;94466.00;;;9.66;100.00
4598;BME280;62772;48.646;8.906;2023-03-14T10:43:37;94467.97;;;9.53;100.00
4598;BME280;62772;48.646;8.906;2023-03-14T10:48:39;94462.59;;;9.33;100.00
4598;BME280;62772;48.646;8.906;2023-03-14T10:53:55;94466.75;;;9.31;100.00
4598;BME280;62772;48.646;8.906;2023-03-14T10:58:57;94484.00;;;9.21;100.00
4598;BME280;62772;48.646;8.906;2023-03-14T11:04:11;94502.50;;;9.14;100.00
4598;BME280;62772;48.646;8.906;2023-03-14T11:14:43;94513.84;;;9.11;100.00
4598;BME280;62772;48.646;8.906;2023-03-14T11:25:56;94523.94;;;8.73;100.00
4598;BME280;62772;48.646;8.906;2023-03-14T11:36:07;94523.41;;;8.51;100.00
4598;BME280;62772;48.646;8.906;2023-03-14T11:41:57;94512.19;;;8.74;100.00
4598;BME280;62772;48.646;8.906;2023-03-14T11:47:01;94539.44;;;8.83;100.00
4598;BME280;62772;48.646;8.906;2023-03-14T11:57:20;94559.97;;;8.42;100.00
4598;BME280;62772;48.646;8.906;2023-03-14T12:13:11;94615.22;;;8.21;100.00
4598;BME280;62772;48.646;8.906;2023-03-14T12:18:36;94625.25;;;7.99;100.00
4598;BME280;62772;48.646;8.906;2023-03-14T12:23:53;94630.47;;;7.95;100.00
4598;BME280;62772;48.646;8.906;2023-03-14T12:49:35;94723.16;;;7.39;100.00
4598;BME280;62772;48.646;8.906;2023-03-14T12:54:55;94733.56;;;7.44;100.00
4598;BME280;62772;48.646;8.906;2023-03-14T12:59:59;94750.59;;;7.76;100.00
4598;BME280;62772;48.646;8.906;2023-03-14T13:05:09;94772.53;;;7.40;99.20
4598;BME280;62772;48.646;8.906;2023-03-14T13:15:17;94825.31;;;6.99;94.17
4598;BME280;62772;48.646;8.906;2023-03-14T13:20:24;94824.69;;;6.72;90.05
4598;BME280;62772;48.646;8.906;2023-03-14T13:25:35;94853.84;;;6.51;84.15
4598;BME280;62772;48.646;8.906;2023-03-14T13:30:41;94849.63;;;6.80;90.79
4598;BME280;62772;48.646;8.906;2023-03-14T13:36:03;94881.94;;;6.52;85.46
4598;BME280;62772;48.646;8.906;2023-03-14T13:41:05;94881.00;;;6.48;88.92
4598;BME280;62772;48.646;8.906;2023-03-14T13:46:14;94927.72;;;6.70;90.60
4598;BME280;62772;48.646;8.906;2023-03-14T13:51:19;94949.25;;;6.69;85.08
4598;BME280;62772;48.646;8.906;2023-03-14T13:56:23;94972.47;;;6.33;79.93
4598;BME280;62772;48.646;8.906;2023-03-14T14:01:29;94984.91;;;6.42;74.21
4598;BME280;62772;48.646;8.906;2023-03-14T14:06:37;95007.56;;;6.30;69.39
4598;BME280;62772;48.646;8.906;2023-03-14T14:11:42;95014.84;;;6.42;74.65
4598;BME280;62772;48.646;8.906;2023-03-14T14:16:44;95007.84;;;6.38;75.86
4598;BME280;62772;48.646;8.906;2023-03-14T14:21:45;95030.94;;;6.37;74.21
4598;BME280;62772;48.646;8.906;2023-03-14T14:26:54;95060.59;;;6.30;73.03
4598;BME280;62772;48.646;8.906;2023-03-14T14:32:01;95053.41;;;6.40;74.31
4598;BME280;62772;48.646;8.906;2023-03-14T14:37:02;95070.38;;;6.56;71.81
4598;BME280;62772;48.646;8.906;2023-03-14T14:42:03;95062.13;;;6.58;72.58
4598;BME280;62772;48.646;8.906;2023-03-14T14:47:03;95077.72;;;6.50;68.81
4598;BME280;62772;48.646;8.906;2023-03-14T14:52:16;95075.00;;;6.85;69.55
4598;BME280;62772;48.646;8.906;2023-03-14T14:57:50;95086.47;;;6.51;68.35
4598;BME280;62772;48.646;8.906;2023-03-14T15:02:53;95094.13;;;6.52;69.20
4598;BME280;62772;48.646;8.906;2023-03-14T15:07:55;95089.91;;;6.51;68.94
4598;BME280;62772;48.646;8.906;2023-03-14T15:12:56;95102.38;;;6.68;69.03
4598;BME280;62772;48.646;8.906;2023-03-14T15:17:56;95109.88;;;6.23;71.94
4598;BME280;62772;48.646;8.906;2023-03-14T15:22:57;95104.72;;;6.35;73.53
4598;BME280;62772;48.646;8.906;2023-03-14T15:27:57;95105.03;;;6.60;73.09
4598;BME280;62772;48.646;8.906;2023-03-14T15:32:58;95112.66;;;6.44;71.44
4598;BME280;62772;48.646;8.906;2023-03-14T15:37:58;95111.13;;;6.43;73.26
4598;BME280;62772;48.646;8.906;2023-03-14T15:42:59;95120.78;;;6.39;72.00
4598;BME280;62772;48.646;8.906;2023-03-14T15:47:59;95123.75;;;6.20;75.49
4598;BME280;62772;48.646;8.906;2023-03-14T15:52:59;95136.06;;;6.50;72.30
4598;BME280;62772;48.646;8.906;2023-03-14T15:58:00;95142.00;;;6.56;73.55
4598;BME280;62772;48.646;8.906;2023-03-14T16:03:02;95142.00;;;6.21;77.33
4598;BME280;62772;48.646;8.906;2023-03-14T16:08:03;95158.06;;;6.60;74.11
4598;BME280;62772;48.646;8.906;2023-03-14T16:13:04;95150.91;;;6.51;75.25
4598;BME280;62772;48.646;8.906;2023-03-14T16:18:05;95156.97;;;6.34;74.14
4598;BME280;62772;48.646;8.906;2023-03-14T16:23:05;95166.34;;;6.49;74.87
4598;BME280;62772;48.646;8.906;2023-03-14T16:28:05;95163.03;;;6.26;76.59
4598;BME280;62772;48.646;8.906;2023-03-14T16:33:06;95173.03;;;6.29;79.58
4598;BME280;62772;48.646;8.906;2023-03-14T16:38:09;95178.97;;;6.35;80.68
4598;BME280;62772;48.646;8.906;2023-03-14T16:43:09;95189.56;;;6.17;81.84
4598;BME280;62772;48.646;8.906;2023-03-14T16:48:10;95195.34;;;6.28;85.16
4598;BME280;62772;48.646;8.906;2023-03-14T16:53:10;95211.84;;;6.08;94.65
4598;BME280;62772;48.646;8.906;2023-03-14T16:58:11;95232.63;;;5.29;100.00
4598;BME280;62772;48.646;8.906;2023-03-14T17:03:12;95247.22;;;5.04;100.00
4598;BME280;62772;48.646;8.906;2023-03-14T17:08:14;95250.84;;;5.31;100.00
4598;BME280;62772;48.646;8.906;2023-03-14T17:13:14;95261.38;;;5.22;100.00
4598;BME280;62772;48.646;8.906;2023-03-14T17:18:15;95275.56;;;5.26;100.00
4598;BME280;62772;48.646;8.906;2023-03-14T17:23:15;95280.56;;;5.27;100.00
4598;BME280;62772;48.646;8.906;2023-03-14T17:28:16;95295.13;;;4.80;100.00
4598;BME280;62772;48.646;8.906;2023-03-14T17:33:17;95310.00;;;4.76;100.00
4598;BME280;62772;48.646;8.906;2023-03-14T17:38:18;95318.69;;;5.04;100.00
4598;BME280;62772;48.646;8.906;2023-03-14T17:43:18;95327.38;;;4.40;100.00
4598;BME280;62772;48.646;8.906;2023-03-14T17:48:19;95323.66;;;4.69;100.00
4598;BME280;62772;48.646;8.906;2023-03-14T17:53:19;95330.97;;;4.86;100.00
4598;BME280;62772;48.646;8.906;2023-03-14T17:58:20;95352.84;;;4.36;100.00
4598;BME280;62772;48.646;8.906;2023-03-14T18:03:20;95396.31;;;4.30;100.00
4598;BME280;62772;48.646;8.906;2023-03-14T18:08:21;95396.66;;;3.76;100.00
4598;BME280;62772;48.646;8.906;2023-03-14T18:13:22;95404.72;;;3.85;100.00
4598;BME280;62772;48.646;8.906;2023-03-14T18:18:22;95403.56;;;3.58;100.00
4598;BME280;62772;48.646;8.906;2023-03-14T18:23:23;95411.53;;;3.72;100.00
4598;BME280;62772;48.646;8.906;2023-03-14T18:28:24;95413.63;;;3.56;100.00
4598;BME280;62772;48.646;8.906;2023-03-14T18:33:24;95421.09;;;3.68;100.00
4598;BME280;62772;48.646;8.906;2023-03-14T18:38:24;95415.63;;;3.78;100.00
4598;BME280;62772;48.646;8.906;2023-03-14T18:43:25;95424.78;;;3.86;100.00
4598;BME280;62772;48.646;8.906;2023-03-14T18:48:26;95412.66;;;4.32;100.00
4598;BME280;62772;48.646;8.906;2023-03-14T18:53:26;95418.78;;;4.13;100.00
4598;BME280;62772;48.646;8.906;2023-03-14T18:58:31;95428.75;;;4.03;100.00
4598;BME280;62772;48.646;8.906;2023-03-14T19:03:33;95433.22;;;4.35;100.00
4598;BME280;62772;48.646;8.906;2023-03-14T19:08:35;95435.16;;;4.29;100.00
4598;BME280;62772;48.646;8.906;2023-03-14T19:13:37;95444.28;;;4.37;100.00
4598;BME280;62772;48.646;8.906;2023-03-14T19:18:38;95452.00;;;3.87;100.00
4598;BME280;62772;48.646;8.906;2023-03-14T19:23:41;95456.19;;;3.31;100.00
4598;BME280;62772;48.646;8.906;2023-03-14T19:28:41;95467.75;;;3.54;100.00
4598;BME280;62772;48.646;8.906;2023-03-14T19:33:42;95454.47;;;3.78;100.00
4598;BME280;62772;48.646;8.906;2023-03-14T19:38:42;95475.03;;;3.81;100.00
4598;BME280;62772;48.646;8.906;2023-03-14T19:43:43;95482.84;;;3.29;100.00
4598;BME280;62772;48.646;8.906;2023-03-14T19:48:43;95474.59;;;3.17;100.00
4598;BME280;62772;48.646;8.906;2023-03-14T19:53:45;95470.69;;;3.52;100.00
4598;BME280;62772;48.646;8.906;2023-03-14T19:58:45;95458.91;;;3.25;100.00
4598;BME280;62772;48.646;8.906;2023-03-14T20:03:46;95475.78;;;3.24;100.00
4598;BME280;62772;48.646;8.906;2023-03-14T20:08:46;95477.41;;;3.01;100.00
4598;BME280;62772;48.646;8.906;2023-03-14T20:13:47;95487.25;;;3.15;100.00
4598;BME280;62772;48.646;8.906;2023-03-14T20:18:47;95485.03;;;3.46;100.00
4598;BME280;62772;48.646;8.906;2023-03-14T20:23:47;95491.09;;;3.47;100.00
4598;BME280;62772;48.646;8.906;2023-03-14T20:28:48;95494.72;;;3.32;100.00
4598;BME280;62772;48.646;8.906;2023-03-14T20:33:48;95509.63;;;3.41;100.00
4598;BME280;62772;48.646;8.906;2023-03-14T20:38:49;95505.47;;;3.35;100.00
4598;BME280;62772;48.646;8.906;2023-03-14T20:43:50;95515.78;;;3.13;100.00
4598;BME280;62772;48.646;8.906;2023-03-14T20:48:51;95526.59;;;3.35;100.00
4598;BME280;62772;48.646;8.906;2023-03-14T20:53:51;95540.34;;;3.32;100.00
4598;BME280;62772;48.646;8.906;2023-03-14T20:58:51;95549.78;;;3.38;100.00
4598;BME280;62772;48.646;8.906;2023-03-14T21:03:52;95568.41;;;2.99;100.00
4598;BME280;62772;48.646;8.906;2023-03-14T21:08:52;95569.13;;;2.80;100.00
4598;BME280;62772;48.646;8.906;2023-03-14T21:13:53;95564.38;;;2.82;100.00
4598;BME280;62772;48.646;8.906;2023-03-14T21:18:53;95567.88;;;2.72;100.00
4598;BME280;62772;48.646;8.906;2023-03-14T21:23:54;95570.41;;;2.83;100.00
4598;BME280;62772;48.646;8.906;2023-03-14T21:28:54;95563.38;;;3.02;100.00
4598;BME280;62772;48.646;8.906;2023-03-14T21:33:55;95576.41;;;2.64;100.00
4598;BME280;62772;48.646;8.906;2023-03-14T21:38:55;95564.88;;;3.08;100.00
4598;BME280;62772;48.646;8.906;2023-03-14T21:43:56;95564.59;;;2.57;100.00
4598;BME280;62772;48.646;8.906;2023-03-14T21:48:56;95562.06;;;2.76;100.00
4598;BME280;62772;48.646;8.906;2023-03-14T21:53:57;95564.81;;;2.60;100.00
4598;BME280;62772;48.646;8.906;2023-03-14T21:58:57;95563.72;;;2.32;100.00
4598;BME280;62772;48.646;8.906;2023-03-14T22:03:59;95578.53;;;2.92;100.00
4598;BME280;62772;48.646;8.906;2023-03-14T22:08:59;95580.84;;;2.69;100.00
4598;BME280;62772;48.646;8.906;2023-03-14T22:14:00;95577.81;;;2.51;100.00
4598;BME280;62772;48.646;8.906;2023-03-14T22:19:00;95583.94;;;2.42;100.00
4598;BME280;62772;48.646;8.906;2023-03-14T22:24:01;95579.94;;;2.15;100.00
4598;BME280;62772;48.646;8.906;2023-03-14T22:29:01;95604.88;;;2.23;100.00
4598;BME280;62772;48.646;8.906;2023-03-14T22:34:02;95673.50;;;0.80;100.00
4598;BME280;62772;48.646;8.906;2023-03-14T22:39:02;95689.09;;;0.03;100.00
4598;BME280;62772;48.646;8.906;2023-03-14T22:44:05;95709.41;;;-0.40;100.00
4598;BME280;62772;48.646;8.906;2023-03-14T22:49:06;95707.03;;;-0.42;100.00
4598;BME280;62772;48.646;8.906;2023-03-14T22:54:06;95715.91;;;-0.48;100.00
4598;BME280;62772;48.646;8.906;2023-03-14T22:59:07;95733.97;;;-0.57;100.00
4598;BME280;62772;48.646;8.906;2023-03-14T23:04:08;95732.97;;;-0.50;100.00
4598;BME280;62772;48.646;8.906;2023-03-14T23:09:08;95754.50;;;-0.43;100.00
4598;BME280;62772;48.646;8.906;2023-03-14T23:14:11;95754.16;;;-0.57;100.00
4598;BME280;62772;48.646;8.906;2023-03-14T23:19:11;95780.06;;;-0.66;100.00
4598;BME280;62772;48.646;8.906;2023-03-14T23:24:12;95773.22;;;-0.67;100.00
4598;BME280;62772;48.646;8.906;2023-03-14T23:29:12;95770.88;;;-0.68;100.00
4598;BME280;62772;48.646;8.906;2023-03-14T23:34:13;95790.44;;;-0.44;100.00
4598;BME280;62772;48.646;8.906;2023-03-14T23:39:13;95793.03;;;-0.49;100.00
4598;BME280;62772;48.646;8.906;2023-03-14T23:44:14;95802.03;;;-0.40;100.00
4598;BME280;62772;48.646;8.906;2023-03-14T23:49:14;95816.31;;;-0.58;100.00
4598;BME280;62772;48.646;8.906;2023-03-14T23:54:14;95816.53;;;-0.64;100.00
4598;BME280;62772;48.646;8.906;2023-03-14T23:59:15;95834.84;;;-0.32;100.00
